Time;durP1;ratioP1;P1;durP2;ratioP2;P2;SDS_P1;SDS_P2;PMS_P1;PMS_P2;Temp;Humidity;BMP_temperature;BMP_pressure;BME280_temperature;BME280_humidity;BME280_pressure;Samples;Min_cycle;Max_cycle;Signal;HPM_P1;HPM_P2
2022/03/12 00:01:38;;;;;;;10.45;4.72;;;8.10;99.90;;;;;;4914384;23;20438;-89
2022/03/12 00:04:06;;;;;;;15.90;5.28;;;8.10;99.90;;;;;;4889814;29;20083;-90
2022/03/12 00:06:32;;;;;;;20.30;5.75;;;8.10;99.90;;;;;;4887102;29;20081;-90
2022/03/12 00:09:01;;;;;;;13.57;5.97;;;8.10;99.90;;;;;;4889066;29;20052;-90
2022/03/12 00:11:34;;;;;;;17.02;5.10;;;8.10;99.90;;;;;;4888036;29;20021;-88
2022/03/12 00:14:05;;;;;;;15.45;5.10;;;8.10;99.90;;;;;;4889275;29;20049;-89
2022/03/12 00:16:31;;;;;;;13.40;5.35;;;8.10;99.90;;;;;;4886614;29;20021;-90
2022/03/12 00:19:03;;;;;;;15.82;5.70;;;8.10;99.90;;;;;;4888826;29;20071;-91
2022/03/12 00:21:35;;;;;;;21.85;5.50;;;8.10;99.90;;;;;;4887638;29;20025;-91
2022/03/12 00:24:01;;;;;;;13.75;5.15;;;8.10;99.90;;;;;;4888404;29;20033;-90
2022/03/12 00:26:29;;;;;;;25.33;6.22;;;8.10;99.90;;;;;;4891202;29;20039;-91
2022/03/12 00:28:56;;;;;;;11.40;6.03;;;8.10;99.90;;;;;;4889453;29;20033;-90
2022/03/12 00:31:23;;;;;;;23.00;7.53;;;8.10;99.90;;;;;;4888962;29;20025;-90
2022/03/12 00:33:49;;;;;;;19.38;7.57;;;8.00;99.90;;;;;;4876072;29;20159;-90
2022/03/12 00:36:17;;;;;;;19.88;8.95;;;8.00;99.90;;;;;;4868804;29;20021;-89
2022/03/12 00:38:44;;;;;;;18.77;8.60;;;8.00;99.90;;;;;;4867737;29;20093;-90
2022/03/12 00:41:14;;;;;;;26.73;11.02;;;8.00;99.90;;;;;;4871491;29;20026;-90
2022/03/12 00:43:40;;;;;;;27.38;11.25;;;8.00;99.90;;;;;;4867890;29;20029;-91
2022/03/12 00:46:06;;;;;;;22.45;9.60;;;8.00;99.90;;;;;;4877405;29;20071;-90
2022/03/12 00:48:32;;;;;;;25.88;9.60;;;8.00;99.90;;;;;;4869021;29;20059;-91
2022/03/12 00:50:58;;;;;;;17.92;8.43;;;8.00;99.90;;;;;;4867822;29;20097;-91
2022/03/12 00:53:24;;;;;;;21.25;9.43;;;8.00;99.90;;;;;;4867762;29;20112;-90
2022/03/12 00:55:49;;;;;;;20.52;8.43;;;8.00;99.90;;;;;;4868977;29;20025;-89
2022/03/12 00:58:15;;;;;;;14.93;8.52;;;8.00;99.90;;;;;;4869680;29;20177;-89
2022/03/12 01:00:41;;;;;;;21.60;8.90;;;7.90;99.90;;;;;;4867635;29;20061;-90
2022/03/12 01:03:07;;;;;;;20.67;7.95;;;8.00;99.90;;;;;;4870211;29;20025;-90
2022/03/12 01:05:45;;;;;;;16.98;7.72;;;7.90;99.90;;;;;;4868977;29;20026;-90
2022/03/12 01:08:11;;;;;;;25.13;9.63;;;8.00;99.90;;;;;;4869423;29;20048;-90
2022/03/12 01:10:36;;;;;;;17.92;8.48;;;8.00;99.90;;;;;;4868389;29;20400;-90
2022/03/12 01:13:02;;;;;;;26.30;9.45;;;7.90;99.90;;;;;;4868724;29;20093;-90
2022/03/12 01:15:28;;;;;;;14.75;8.30;;;7.90;99.90;;;;;;4869896;29;20080;-91
2022/03/12 01:17:54;;;;;;;19.42;9.90;;;7.90;99.90;;;;;;4869336;29;20044;-89
2022/03/12 01:20:23;;;;;;;20.58;10.43;;;7.90;99.90;;;;;;4866829;29;20029;-89
2022/03/12 01:22:50;;;;;;;19.08;9.20;;;7.90;99.90;;;;;;4869866;29;20025;-89
2022/03/12 01:25:16;;;;;;;20.60;8.85;;;7.90;99.90;;;;;;4868352;29;20515;-89
2022/03/12 01:27:43;;;;;;;19.85;9.70;;;7.90;99.90;;;;;;4868156;29;20495;-90
2022/03/12 01:30:09;;;;;;;20.48;9.85;;;7.90;99.90;;;;;;4869223;29;20060;-89
2022/03/12 01:32:36;;;;;;;16.52;9.65;;;7.90;99.90;;;;;;4868090;29;20025;-90
2022/03/12 01:35:04;;;;;;;14.60;7.97;;;7.80;99.90;;;;;;4868310;29;20116;-90
2022/03/12 01:37:30;;;;;;;15.85;9.02;;;7.90;99.90;;;;;;4869267;29;20021;-89
2022/03/12 01:39:56;;;;;;;17.40;8.23;;;7.90;99.90;;;;;;4867664;29;20037;-89
2022/03/12 01:42:22;;;;;;;19.75;9.80;;;7.90;99.90;;;;;;4867629;29;20066;-88
2022/03/12 01:44:51;;;;;;;19.15;8.63;;;7.90;99.90;;;;;;4866767;29;20021;-89
2022/03/12 01:47:19;;;;;;;23.15;8.40;;;7.90;99.90;;;;;;4868751;29;20044;-90
2022/03/12 01:49:51;;;;;;;19.00;8.63;;;7.90;99.90;;;;;;4869033;29;20030;-89
2022/03/12 01:52:17;;;;;;;21.27;8.52;;;7.90;99.90;;;;;;4867844;29;20022;-91
2022/03/12 01:54:43;;;;;;;21.63;7.97;;;7.80;99.90;;;;;;4867833;29;20028;-89
2022/03/12 01:57:09;;;;;;;19.33;8.35;;;7.90;99.90;;;;;;4869049;29;20036;-89
2022/03/12 01:59:38;;;;;;;13.40;7.15;;;7.80;99.90;;;;;;4867484;29;20404;-90
2022/03/12 02:02:07;;;;;;;16.38;5.85;;;7.80;99.90;;;;;;4870510;29;20060;-88
2022/03/12 02:04:33;;;;;;;8.80;4.55;;;7.90;99.90;;;;;;4869792;29;20437;-89
2022/03/12 02:06:59;;;;;;;11.73;5.95;;;7.80;99.90;;;;;;4867071;29;20112;-89
2022/03/12 02:09:26;;;;;;;15.13;6.28;;;7.80;99.90;;;;;;4867198;29;20400;-88
2022/03/12 02:11:53;;;;;;;16.60;6.90;;;7.80;99.90;;;;;;4868042;29;20029;-89
2022/03/12 02:14:24;;;;;;;14.73;5.78;;;7.80;99.90;;;;;;4868686;29;20035;-89
2022/03/12 02:16:59;;;;;;;21.88;7.00;;;7.90;99.90;;;;;;4874527;29;20022;-88
2022/03/12 02:19:27;;;;;;;15.25;6.57;;;7.80;99.90;;;;;;4872727;29;20037;-89
2022/03/12 02:21:53;;;;;;;19.42;6.68;;;7.90;99.90;;;;;;4884013;29;20026;-89
2022/03/12 02:24:21;;;;;;;16.17;5.55;;;7.90;99.90;;;;;;4885023;29;20045;-88
2022/03/12 02:26:48;;;;;;;15.77;5.68;;;7.80;99.90;;;;;;4882526;29;20028;-89
2022/03/12 02:29:20;;;;;;;13.57;5.28;;;7.90;99.90;;;;;;4879723;29;20025;-89
2022/03/12 02:31:51;;;;;;;12.55;5.30;;;7.80;99.90;;;;;;4873904;29;20052;-89
2022/03/12 02:34:23;;;;;;;18.65;5.22;;;7.90;99.90;;;;;;4872121;29;20032;-90
2022/03/12 02:36:51;;;;;;;14.15;5.38;;;7.90;99.90;;;;;;4871600;29;20112;-88
2022/03/12 02:39:19;;;;;;;14.18;5.38;;;7.80;99.90;;;;;;4872285;29;20033;-89
2022/03/12 02:41:44;;;;;;;13.45;5.53;;;7.80;99.90;;;;;;4871927;29;20034;-87
2022/03/12 02:44:17;;;;;;;11.20;5.88;;;7.80;99.90;;;;;;4870572;29;20022;-89
2022/03/12 02:46:45;;;;;;;12.57;5.03;;;7.80;99.90;;;;;;4870887;29;20490;-89
2022/03/12 02:49:11;;;;;;;15.48;3.83;;;7.80;99.90;;;;;;4870176;29;20029;-90
2022/03/12 02:51:39;;;;;;;19.60;4.65;;;7.80;99.90;;;;;;4871402;29;20112;-90
2022/03/12 02:54:05;;;;;;;12.32;3.65;;;7.80;99.90;;;;;;4871896;29;20116;-89
2022/03/12 02:56:31;;;;;;;7.70;4.63;;;7.80;99.90;;;;;;4872248;29;20048;-89
2022/03/12 02:58:57;;;;;;;11.02;4.05;;;7.80;99.90;;;;;;4870034;29;20044;-89
2022/03/12 03:01:23;;;;;;;11.75;3.92;;;7.80;99.90;;;;;;4869966;29;20137;-88
2022/03/12 03:03:49;;;;;;;13.50;3.92;;;7.80;99.90;;;;;;4869790;29;20033;-88
2022/03/12 03:06:15;;;;;;;8.32;4.10;;;7.80;99.90;;;;;;4871513;29;20045;-89
2022/03/12 03:08:42;;;;;;;6.40;3.47;;;7.80;99.90;;;;;;4870905;29;20021;-89
2022/03/12 03:11:19;;;;;;;9.25;3.47;;;7.70;99.90;;;;;;4869428;29;20037;-91
2022/03/12 03:13:45;;;;;;;9.02;3.22;;;7.80;99.90;;;;;;4867865;29;20471;-88
2022/03/12 03:16:21;;;;;;;11.93;3.35;;;7.70;99.90;;;;;;4872248;29;20061;-89
2022/03/12 03:18:52;;;;;;;8.48;2.67;;;7.70;99.90;;;;;;4869529;29;20479;-89
2022/03/12 03:21:20;;;;;;;7.25;2.72;;;7.70;99.90;;;;;;4877822;29;20107;-90
2022/03/12 03:23:47;;;;;;;6.57;2.58;;;7.70;99.90;;;;;;4869728;29;20652;-90
2022/03/12 03:26:14;;;;;;;14.00;3.20;;;7.70;99.90;;;;;;4871862;29;20041;-90
2022/03/12 03:28:41;;;;;;;8.50;2.75;;;7.70;99.90;;;;;;4870500;29;20390;-89
2022/03/12 03:31:08;;;;;;;3.72;2.05;;;7.70;99.90;;;;;;4873780;29;20124;-89
2022/03/12 03:33:34;;;;;;;10.52;2.83;;;7.70;99.90;;;;;;4868677;29;20033;-89
2022/03/12 03:36:00;;;;;;;10.75;2.35;;;7.70;99.90;;;;;;4870599;29;20037;-88
2022/03/12 03:38:26;;;;;;;8.85;2.42;;;7.70;99.90;;;;;;4870788;29;20041;-90
2022/03/12 03:40:52;;;;;;;5.45;2.10;;;7.70;99.90;;;;;;4868924;29;20112;-90
2022/03/12 03:43:20;;;;;;;5.10;2.10;;;7.70;99.90;;;;;;4870324;29;20148;-90
2022/03/12 03:45:48;;;;;;;6.40;2.38;;;7.70;99.90;;;;;;4870977;29;20062;-89
2022/03/12 03:48:17;;;;;;;5.32;1.63;;;7.70;99.90;;;;;;4871220;29;20025;-89
2022/03/12 03:50:44;;;;;;;12.45;2.80;;;7.70;99.90;;;;;;4870880;29;20495;-89
2022/03/12 03:53:12;;;;;;;7.18;1.90;;;7.70;99.90;;;;;;4870743;29;20025;-89
2022/03/12 03:55:38;;;;;;;5.78;2.22;;;7.70;99.90;;;;;;4871635;29;20101;-90
2022/03/12 03:58:04;;;;;;;4.90;2.10;;;7.70;99.90;;;;;;4869543;29;20037;-88
2022/03/12 04:00:33;;;;;;;7.78;2.10;;;7.60;99.90;;;;;;4868207;29;20052;-89
2022/03/12 04:03:05;;;;;;;6.63;1.70;;;7.60;99.90;;;;;;4871480;29;20068;-89
2022/03/12 04:05:35;;;;;;;12.50;2.22;;;7.60;99.90;;;;;;4868639;29;20026;-89
2022/03/12 04:08:02;;;;;;;11.70;2.63;;;7.60;99.90;;;;;;4870178;29;20028;-90
2022/03/12 04:10:29;;;;;;;7.22;1.90;;;7.60;99.90;;;;;;4868414;29;20116;-89
2022/03/12 04:12:57;;;;;;;8.77;1.98;;;7.60;99.90;;;;;;4870684;29;20025;-89
2022/03/12 04:15:23;;;;;;;2.70;1.50;;;7.60;99.90;;;;;;4868226;29;20119;-88
2022/03/12 04:17:52;;;;;;;8.65;1.80;;;7.60;99.90;;;;;;4870647;29;20029;-88
2022/03/12 04:20:18;;;;;;;4.95;1.50;;;7.60;99.90;;;;;;4869399;29;20037;-89
2022/03/12 04:22:49;;;;;;;7.20;1.40;;;7.60;99.90;;;;;;4869224;29;20117;-90
2022/03/12 04:25:16;;;;;;;7.85;1.60;;;7.60;99.90;;;;;;4874307;29;20032;-89
2022/03/12 04:27:44;;;;;;;4.97;1.35;;;7.60;99.90;;;;;;4868707;29;20810;-88
2022/03/12 04:30:12;;;;;;;3.75;1.60;;;7.60;99.90;;;;;;4868427;29;20051;-88
2022/03/12 04:32:39;;;;;;;6.97;1.70;;;7.60;99.90;;;;;;4870457;29;20047;-89
2022/03/12 04:35:06;;;;;;;8.60;1.60;;;7.50;99.90;;;;;;4867620;29;20064;-88
2022/03/12 04:37:34;;;;;;;6.18;1.50;;;7.50;99.90;;;;;;4870242;29;20021;-90
2022/03/12 04:39:59;;;;;;;6.80;1.40;;;7.50;99.90;;;;;;4869055;29;20128;-89
2022/03/12 04:42:25;;;;;;;8.07;1.48;;;7.50;99.90;;;;;;4873633;29;20061;-89
2022/03/12 04:44:51;;;;;;;5.35;1.10;;;7.50;99.90;;;;;;4868338;29;20022;-89
2022/03/12 04:47:20;;;;;;;5.28;1.48;;;7.50;99.90;;;;;;4871063;29;20399;-89
2022/03/12 04:49:46;;;;;;;3.95;1.40;;;7.40;99.90;;;;;;4868574;29;20117;-89
2022/03/12 04:52:12;;;;;;;8.45;1.67;;;7.40;99.90;;;;;;4868473;29;20138;-89
2022/03/12 04:54:39;;;;;;;3.88;1.33;;;7.40;99.90;;;;;;4869456;29;20028;-89
2022/03/12 04:57:05;;;;;;;4.18;1.30;;;7.40;99.90;;;;;;4870271;29;20132;-89
2022/03/12 04:59:31;;;;;;;6.30;1.25;;;7.40;99.90;;;;;;4869831;29;20056;-89
2022/03/12 05:01:59;;;;;;;11.65;1.58;;;7.40;99.90;;;;;;4868298;29;20128;-88
2022/03/12 05:04:25;;;;;;;4.20;1.42;;;7.40;99.90;;;;;;4870633;29;20481;-90
2022/03/12 05:06:51;;;;;;;11.15;1.30;;;7.40;99.90;;;;;;4867830;29;20025;-90
2022/03/12 05:09:19;;;;;;;5.32;1.23;;;7.40;99.90;;;;;;4869371;29;20036;-90
2022/03/12 05:11:45;;;;;;;4.35;1.30;;;7.40;99.90;;;;;;4870106;29;20032;-89
2022/03/12 05:14:16;;;;;;;8.85;1.40;;;7.40;99.90;;;;;;4869255;29;20034;-88
2022/03/12 05:16:44;;;;;;;7.97;1.33;;;7.40;99.90;;;;;;4872938;29;20055;-89
2022/03/12 05:19:10;;;;;;;2.95;1.13;;;7.40;99.90;;;;;;4867717;29;20076;-88
2022/03/12 05:21:36;;;;;;;3.20;1.80;;;7.40;99.90;;;;;;4870241;29;20033;-89
2022/03/12 05:24:02;;;;;;;7.70;1.35;;;7.40;99.90;;;;;;4868369;29;20033;-88
2022/03/12 05:26:27;;;;;;;4.63;1.48;;;7.40;99.90;;;;;;4866802;29;20140;-89
2022/03/12 05:28:53;;;;;;;3.70;1.35;;;7.40;99.90;;;;;;4869224;29;20464;-90
2022/03/12 05:31:19;;;;;;;3.80;1.35;;;7.30;99.90;;;;;;4867986;29;20025;-90
2022/03/12 05:33:46;;;;;;;5.22;1.80;;;7.30;99.90;;;;;;4868084;29;20460;-88
2022/03/12 05:36:12;;;;;;;3.00;1.20;;;7.30;99.90;;;;;;4869441;29;20048;-89
2022/03/12 05:38:38;;;;;;;6.00;1.33;;;7.30;99.90;;;;;;4868570;29;20111;-88
2022/03/12 05:41:11;;;;;;;7.07;1.40;;;7.30;99.90;;;;;;4871690;29;20057;-89
2022/03/12 05:43:41;;;;;;;4.43;1.52;;;7.30;99.90;;;;;;4870642;29;20125;-88
2022/03/12 05:46:07;;;;;;;6.23;1.90;;;7.30;99.90;;;;;;4876184;29;20048;-89
2022/03/12 05:48:32;;;;;;;7.45;1.70;;;7.30;99.90;;;;;;4878350;29;20292;-89
2022/03/12 05:50:59;;;;;;;2.50;1.17;;;7.20;99.90;;;;;;4872016;29;20025;-89
2022/03/12 05:53:25;;;;;;;1.95;1.13;;;7.20;99.90;;;;;;4871788;29;20032;-88
2022/03/12 05:55:51;;;;;;;2.72;1.48;;;7.20;99.90;;;;;;4872195;29;20547;-89
2022/03/12 05:58:19;;;;;;;6.93;1.80;;;7.20;99.90;;;;;;4871241;29;20045;-89
2022/03/12 06:00:46;;;;;;;2.50;1.35;;;7.20;99.90;;;;;;4876145;29;20089;-88
2022/03/12 06:03:12;;;;;;;4.45;1.40;;;7.20;99.90;;;;;;4873756;29;20053;-89
2022/03/12 06:05:40;;;;;;;3.72;1.33;;;7.20;99.90;;;;;;4872965;29;20029;-90
2022/03/12 06:08:07;;;;;;;2.30;1.42;;;7.20;99.90;;;;;;4880856;29;20033;-90
2022/03/12 06:10:37;;;;;;;3.10;1.50;;;7.20;99.90;;;;;;4882730;29;20033;-87
2022/03/12 06:13:05;;;;;;;7.70;1.30;;;7.20;99.90;;;;;;4879232;29;20490;-88
2022/03/12 06:15:32;;;;;;;3.38;1.40;;;7.20;99.90;;;;;;4880392;29;20054;-89
2022/03/12 06:17:58;;;;;;;5.25;1.83;;;7.20;99.90;;;;;;4877679;29;20124;-88
2022/03/12 06:20:24;;;;;;;3.30;0.98;;;7.10;99.90;;;;;;4879234;29;20037;-88
2022/03/12 06:22:52;;;;;;;9.60;1.92;;;7.20;99.90;;;;;;4883490;29;20100;-89
2022/03/12 06:25:19;;;;;;;1.92;1.60;;;7.10;99.90;;;;;;4879122;29;20036;-91
2022/03/12 06:27:53;;;;;;;1.45;0.90;;;7.10;99.90;;;;;;4877192;29;20472;-89
2022/03/12 06:30:26;;;;;;;2.00;1.55;;;7.10;99.90;;;;;;4872539;29;20053;-90
2022/03/12 06:32:55;;;;;;;2.05;1.38;;;7.10;99.90;;;;;;4871027;29;20538;-89
2022/03/12 06:35:22;;;;;;;3.83;1.20;;;7.10;99.90;;;;;;4870129;29;20101;-89
2022/03/12 06:37:48;;;;;;;3.05;1.40;;;7.10;99.90;;;;;;4869278;29;20028;-89
2022/03/12 06:40:15;;;;;;;3.60;1.98;;;7.10;99.90;;;;;;4876647;29;20080;-89
2022/03/12 06:42:43;;;;;;;4.80;1.50;;;7.10;99.90;;;;;;4877658;29;20029;-90
2022/03/12 06:45:10;;;;;;;3.10;1.75;;;7.10;99.90;;;;;;4877700;29;20729;-91
2022/03/12 06:47:38;;;;;;;1.98;1.45;;;7.10;99.90;;;;;;4881404;29;20100;-89
2022/03/12 06:50:08;;;;;;;1.40;1.27;;;7.10;99.90;;;;;;4871994;29;20018;-90
2022/03/12 06:52:34;;;;;;;2.33;1.10;;;7.00;99.90;;;;;;4877000;29;20056;-89
2022/03/12 06:55:00;;;;;;;2.42;0.95;;;7.00;99.90;;;;;;4878686;29;20032;-90
2022/03/12 06:57:26;;;;;;;3.17;0.90;;;7.00;99.90;;;;;;4874800;29;20024;-89
2022/03/12 06:59:52;;;;;;;1.42;0.60;;;7.00;99.90;;;;;;4875653;29;20037;-90
2022/03/12 07:02:18;;;;;;;1.02;0.70;;;7.00;99.90;;;;;;4875825;29;20041;-89
2022/03/12 07:04:44;;;;;;;1.63;0.70;;;7.00;99.90;;;;;;4876886;29;20028;-90
2022/03/12 07:07:09;;;;;;;2.40;1.00;;;7.00;99.90;;;;;;4873512;29;20089;-91
2022/03/12 07:09:36;;;;;;;1.45;0.52;;;7.10;99.90;;;;;;4877634;29;20021;-91
2022/03/12 07:12:03;;;;;;;2.88;0.60;;;7.10;99.90;;;;;;4874638;29;20037;-89
2022/03/12 07:14:30;;;;;;;2.38;0.60;;;7.10;99.90;;;;;;4870067;29;20112;-90
2022/03/12 07:16:56;;;;;;;0.80;0.52;;;7.10;99.90;;;;;;4872174;29;20471;-90
2022/03/12 07:19:22;;;;;;;2.45;0.73;;;7.10;99.90;;;;;;4872728;29;20051;-90
2022/03/12 07:21:51;;;;;;;3.63;0.70;;;7.10;99.90;;;;;;4870582;29;20026;-90
2022/03/12 07:24:17;;;;;;;0.88;0.70;;;7.10;99.90;;;;;;4867352;29;20073;-90
2022/03/12 07:26:43;;;;;;;0.77;0.60;;;7.20;99.90;;;;;;4870636;29;20033;-89
2022/03/12 07:29:09;;;;;;;1.75;1.00;;;7.20;99.90;;;;;;4869454;29;20036;-91
2022/03/12 07:31:37;;;;;;;1.13;0.68;;;7.10;99.90;;;;;;4869281;29;20425;-91
2022/03/12 07:34:04;;;;;;;2.45;0.60;;;7.20;99.90;;;;;;4871472;29;20032;-90
2022/03/12 07:36:29;;;;;;;2.28;0.63;;;7.20;99.90;;;;;;4869474;29;20037;-90
2022/03/12 07:38:58;;;;;;;0.73;0.52;;;7.10;99.90;;;;;;4875977;29;20048;-90
2022/03/12 07:41:24;;;;;;;1.23;1.05;;;7.10;99.90;;;;;;4875487;29;20041;-90
2022/03/12 07:43:50;;;;;;;1.95;0.68;;;7.10;99.90;;;;;;4873207;29;20052;-89
2022/03/12 07:46:18;;;;;;;0.70;0.70;;;7.20;99.90;;;;;;4868987;29;20032;-90
2022/03/12 07:48:43;;;;;;;1.55;0.65;;;7.20;99.90;;;;;;4873115;29;20135;-90
2022/03/12 07:51:09;;;;;;;1.10;0.70;;;7.20;99.90;;;;;;4882080;29;20524;-90
2022/03/12 07:53:36;;;;;;;1.13;0.65;;;7.20;99.90;;;;;;4882962;29;20033;-90
2022/03/12 07:56:03;;;;;;;0.60;0.60;;;7.20;99.90;;;;;;4875234;29;20028;-91
2022/03/12 07:58:30;;;;;;;2.25;0.52;;;7.30;99.90;;;;;;4871778;29;20033;-90
2022/03/12 08:00:56;;;;;;;1.80;0.80;;;7.30;99.90;;;;;;4868812;29;20052;-90
2022/03/12 08:03:23;;;;;;;2.90;0.50;;;7.30;99.90;;;;;;4870130;29;20474;-90
2022/03/12 08:05:50;;;;;;;3.25;0.98;;;7.30;99.90;;;;;;4870837;29;20037;-90
2022/03/12 08:08:17;;;;;;;5.30;0.90;;;7.30;99.90;;;;;;4874971;29;20030;-91
2022/03/12 08:13:29;;;;;;;2.42;0.50;;;7.30;99.90;;;;;;4871376;29;20101;-90
2022/03/12 08:15:55;;;;;;;2.95;0.73;;;7.30;99.90;;;;;;4869583;29;20556;-92
2022/03/12 08:18:22;;;;;;;2.65;0.88;;;7.30;99.90;;;;;;4867807;29;20029;-90
2022/03/12 08:20:49;;;;;;;3.75;1.40;;;7.30;99.90;;;;;;4866509;29;20021;-90
2022/03/12 08:23:15;;;;;;;2.13;0.77;;;7.30;99.90;;;;;;4872240;29;20033;-90
2022/03/12 08:25:41;;;;;;;3.55;1.00;;;7.30;99.90;;;;;;4872678;29;20471;-92
2022/03/12 08:28:07;;;;;;;5.47;0.93;;;7.30;99.90;;;;;;4864117;29;20033;-90
2022/03/12 08:30:35;;;;;;;4.15;1.15;;;7.40;99.90;;;;;;4872399;29;20021;-90
2022/03/12 08:33:01;;;;;;;3.53;0.80;;;7.40;99.90;;;;;;4870246;29;20403;-90
2022/03/12 08:35:27;;;;;;;2.33;0.75;;;7.40;99.90;;;;;;4869277;29;20099;-90
2022/03/12 08:37:53;;;;;;;4.18;1.30;;;7.40;99.90;;;;;;4873675;29;20055;-90
2022/03/12 08:40:19;;;;;;;1.65;0.95;;;7.40;99.90;;;;;;4871364;29;20073;-90
2022/03/12 08:42:45;;;;;;;1.92;1.42;;;7.50;99.90;;;;;;4864227;29;20113;-91
2022/03/12 08:45:11;;;;;;;2.33;1.15;;;7.50;99.90;;;;;;4873329;29;20121;-91
2022/03/12 08:47:38;;;;;;;4.45;1.27;;;7.50;99.90;;;;;;4869875;29;20396;-90
2022/03/12 08:50:08;;;;;;;5.45;1.80;;;7.50;99.90;;;;;;4876546;29;20120;-89
2022/03/12 08:52:38;;;;;;;4.10;1.30;;;7.50;99.90;;;;;;4876730;29;20024;-91
2022/03/12 08:55:05;;;;;;;3.70;1.00;;;7.60;99.90;;;;;;4868495;29;20113;-90
2022/03/12 08:57:31;;;;;;;2.88;1.00;;;7.60;99.90;;;;;;4860300;29;20034;-89
2022/03/12 08:59:57;;;;;;;2.78;0.95;;;7.60;99.90;;;;;;4860484;29;20076;-90
2022/03/12 09:02:23;;;;;;;8.77;1.40;;;7.60;99.90;;;;;;4860907;29;20038;-91
2022/03/12 09:04:49;;;;;;;7.55;1.20;;;7.70;99.90;;;;;;4863900;29;20076;-90
2022/03/12 09:07:15;;;;;;;5.70;1.38;;;7.70;99.90;;;;;;4861654;29;20049;-91
2022/03/12 09:09:41;;;;;;;3.22;1.08;;;7.80;99.90;;;;;;4861845;29;20032;-92
2022/03/12 09:12:08;;;;;;;5.88;1.67;;;7.90;99.90;;;;;;4884736;29;20559;-89
2022/03/12 09:14:36;;;;;;;4.90;1.13;;;8.00;99.90;;;;;;4894463;29;20030;-90
2022/03/12 09:17:03;;;;;;;4.72;0.90;;;8.00;99.90;;;;;;4891336;29;20033;-90
2022/03/12 09:19:29;;;;;;;5.18;1.15;;;8.00;99.90;;;;;;4888087;29;20037;-90
2022/03/12 09:21:57;;;;;;;9.48;2.15;;;8.00;99.90;;;;;;4883424;29;20064;-90
2022/03/12 09:24:22;;;;;;;3.53;0.98;;;8.00;99.90;;;;;;4879561;29;20040;-91
2022/03/12 09:26:48;;;;;;;8.65;1.38;;;8.10;99.90;;;;;;4879419;29;20096;-91
2022/03/12 09:29:14;;;;;;;5.50;1.20;;;8.10;99.90;;;;;;4879019;29;20048;-90
2022/03/12 09:31:40;;;;;;;4.28;1.20;;;8.20;99.90;;;;;;4878820;29;20021;-90
2022/03/12 09:34:06;;;;;;;2.63;1.20;;;8.30;99.90;;;;;;4879501;29;20029;-92
2022/03/12 09:36:32;;;;;;;6.20;1.27;;;8.40;99.90;;;;;;4879206;29;20080;-91
2022/03/12 09:38:58;;;;;;;2.83;0.75;;;8.50;99.90;;;;;;4878914;29;20037;-90
2022/03/12 09:41:24;;;;;;;2.35;1.10;;;8.50;99.90;;;;;;4879044;29;20169;-91
2022/03/12 09:43:50;;;;;;;8.95;1.08;;;8.60;99.90;;;;;;4879432;29;20040;-90
2022/03/12 09:46:17;;;;;;;8.50;2.05;;;8.70;99.90;;;;;;4879633;29;20029;-91
2022/03/12 09:48:43;;;;;;;3.83;1.25;;;8.80;99.90;;;;;;4879720;29;20025;-90
2022/03/12 09:51:10;;;;;;;6.65;1.42;;;8.90;99.90;;;;;;4880095;29;20037;-91
2022/03/12 09:53:35;;;;;;;7.75;1.35;;;9.10;99.90;;;;;;4879655;29;20039;-91
2022/03/12 09:56:02;;;;;;;3.80;0.93;;;9.20;99.90;;;;;;4879257;29;20092;-91
2022/03/12 09:58:28;;;;;;;9.52;1.33;;;9.30;99.90;;;;;;4879264;29;20086;-92
2022/03/12 10:00:54;;;;;;;1.85;1.08;;;9.40;99.90;;;;;;4878808;29;20411;-93
2022/03/12 10:03:19;;;;;;;4.03;0.73;;;9.50;99.90;;;;;;4880008;29;20036;-92
2022/03/12 10:05:45;;;;;;;4.93;0.75;;;9.50;99.90;;;;;;4879688;29;20463;-92
2022/03/12 10:08:11;;;;;;;5.88;0.90;;;9.50;99.90;;;;;;4879288;29;20161;-91
2022/03/12 10:10:37;;;;;;;5.47;1.20;;;9.50;99.90;;;;;;4879041;29;20029;-91
2022/03/12 10:13:03;;;;;;;6.63;0.88;;;9.50;99.90;;;;;;4878858;29;20040;-92
2022/03/12 10:15:29;;;;;;;5.45;1.27;;;9.60;99.90;;;;;;4878976;29;20033;-92
2022/03/12 10:17:56;;;;;;;6.55;1.35;;;9.70;99.90;;;;;;4879625;29;20064;-91
2022/03/12 10:20:22;;;;;;;1.85;0.60;;;9.90;99.90;;;;;;4879473;29;20543;-92
2022/03/12 10:22:49;;;;;;;4.07;0.50;;;10.00;99.90;;;;;;4879199;29;20068;-91
2022/03/12 10:25:15;;;;;;;4.88;0.93;;;10.10;99.90;;;;;;4878892;29;20510;-91
2022/03/12 10:27:41;;;;;;;5.47;0.75;;;10.10;99.90;;;;;;4878973;29;20116;-93
2022/03/12 10:30:08;;;;;;;10.85;1.20;;;10.10;99.90;;;;;;4878833;29;20036;-91
2022/03/12 10:32:41;;;;;;;4.88;1.00;;;10.10;99.90;;;;;;4878815;29;20048;-90
2022/03/12 10:35:08;;;;;;;5.90;0.60;;;10.00;99.90;;;;;;4878782;29;20025;-91
2022/03/12 10:37:35;;;;;;;6.32;0.70;;;10.00;99.90;;;;;;4878627;29;20515;-91
2022/03/12 10:40:21;;;;;;;3.08;0.68;;;10.00;99.90;;;;;;4878928;29;20511;-91
2022/03/12 10:42:59;;;;;;;5.65;1.23;;;9.90;99.90;;;;;;4882862;29;20033;-94
2022/03/12 10:45:30;;;;;;;4.78;0.60;;;9.80;99.90;;;;;;4882894;29;20566;-91
2022/03/12 10:47:58;;;;;;;6.60;0.75;;;9.80;99.90;;;;;;4882249;29;20037;-92
2022/03/12 10:50:34;;;;;;;3.53;0.57;;;9.80;99.90;;;;;;4882536;29;20021;-92
2022/03/12 10:53:05;;;;;;;7.10;1.08;;;9.80;99.90;;;;;;4882547;29;20069;-92
2022/03/12 10:55:36;;;;;;;4.10;0.80;;;9.70;99.90;;;;;;4882268;29;20025;-90
2022/03/12 10:58:27;;;;;;;3.40;1.00;;;9.70;99.90;;;;;;4881878;29;20507;-91
2022/03/12 11:00:59;;;;;;;8.03;0.83;;;9.60;99.90;;;;;;4882259;29;20095;-91
2022/03/12 11:03:33;;;;;;;7.63;1.23;;;9.50;99.90;;;;;;4882007;29;20116;-89
2022/03/12 11:05:59;;;;;;;6.03;0.90;;;9.40;99.90;;;;;;4881632;29;20080;-91
2022/03/12 11:08:26;;;;;;;3.60;0.90;;;9.40;99.90;;;;;;4881471;29;20041;-93
2022/03/12 11:11:12;;;;;;;4.82;1.70;;;9.50;99.90;;;;;;4881815;29;20119;-92
2022/03/12 11:13:49;;;;;;;7.55;1.00;;;9.40;99.90;;;;;;4881892;29;20029;-90
2022/03/12 11:16:33;;;;;;;4.15;0.85;;;9.40;99.90;;;;;;4881746;29;20088;-92
2022/03/12 11:19:10;;;;;;;9.68;1.00;;;9.30;99.90;;;;;;4881147;29;20073;-90
2022/03/12 11:21:53;;;;;;;10.90;1.30;;;9.30;99.90;;;;;;4881897;29;20173;-91
2022/03/12 11:24:43;;;;;;;5.43;0.98;;;9.20;99.90;;;;;;4881819;29;20029;-90
2022/03/12 11:27:14;;;;;;;1.13;0.35;;;9.30;99.90;;;;;;4881250;29;20120;-92
2022/03/12 11:29:40;;;;;;;6.07;0.82;;;9.20;99.90;;;;;;4881491;29;20076;-92
2022/03/12 11:32:09;;;;;;;3.65;0.47;;;9.30;99.90;;;;;;4881385;29;20507;-93
2022/03/12 11:34:40;;;;;;;3.13;0.65;;;9.30;99.90;;;;;;4886583;29;20029;-91
2022/03/12 11:37:15;;;;;;;4.75;0.90;;;9.30;99.90;;;;;;4881919;29;20059;-92
2022/03/12 11:39:45;;;;;;;1.90;0.88;;;9.30;99.90;;;;;;4881393;29;20403;-91
2022/03/12 11:42:16;;;;;;;5.30;0.70;;;9.20;99.90;;;;;;4881908;29;20047;-91
2022/03/12 11:44:56;;;;;;;6.03;0.70;;;9.20;99.90;;;;;;4885325;29;20029;-92
2022/03/12 11:47:31;;;;;;;2.05;0.70;;;9.20;99.90;;;;;;4891447;29;20178;-93
2022/03/12 11:49:58;;;;;;;5.32;1.00;;;9.20;99.90;;;;;;4891573;29;20044;-91
2022/03/12 11:52:24;;;;;;;7.03;1.23;;;9.20;99.90;;;;;;4894154;29;20029;-93
2022/03/12 11:54:56;;;;;;;4.18;1.02;;;9.20;99.90;;;;;;4896216;29;20092;-91
2022/03/12 11:57:30;;;;;;;4.82;0.90;;;9.20;99.90;;;;;;4884991;29;20124;-91
2022/03/12 11:59:57;;;;;;;4.40;0.93;;;9.20;99.90;;;;;;4883741;29;20131;-92
2022/03/12 12:02:33;;;;;;;3.42;1.13;;;9.20;99.90;;;;;;4883287;29;20057;-90
2022/03/12 12:05:08;;;;;;;8.25;1.25;;;9.20;99.90;;;;;;4882319;29;20048;-92
2022/03/12 12:07:38;;;;;;;8.40;1.65;;;9.20;99.90;;;;;;4882190;29;20033;-93
2022/03/12 12:10:06;;;;;;;4.40;0.77;;;9.30;99.90;;;;;;4880985;29;20048;-91
2022/03/12 12:12:35;;;;;;;2.72;0.93;;;9.40;99.90;;;;;;4880826;29;20037;-91
2022/03/12 12:15:05;;;;;;;4.18;1.23;;;9.50;99.90;;;;;;4881581;29;20036;-91
2022/03/12 12:17:32;;;;;;;;;;;9.50;99.90;;;;;;4881702;29;20089;-92
2022/03/12 12:19:58;;;;;;;7.25;1.17;;;9.60;99.90;;;;;;4880853;29;19955;-92
2022/03/12 12:22:24;;;;;;;4.43;0.98;;;9.60;99.90;;;;;;4881276;29;20036;-91
2022/03/12 12:24:55;;;;;;;9.10;1.20;;;9.90;99.90;;;;;;4881315;29;20033;-91
2022/03/12 12:27:23;;;;;;;;;;;10.30;99.90;;;;;;4881761;29;20033;-93
2022/03/12 12:29:56;;;;;;;4.05;0.90;;;10.50;99.90;;;;;;4881315;29;19950;-91
2022/03/12 12:32:27;;;;;;;10.00;1.30;;;10.70;99.90;;;;;;4880927;29;20025;-92
2022/03/12 12:35:07;;;;;;;4.80;1.20;;;10.70;99.90;;;;;;4880934;29;20033;-91
2022/03/12 12:37:42;;;;;;;3.45;0.93;;;10.60;99.90;;;;;;4881183;29;20116;-90
2022/03/12 12:40:17;;;;;;;1.98;0.80;;;10.60;99.90;;;;;;4887297;29;20487;-90
2022/03/12 12:42:45;;;;;;;8.70;1.20;;;10.60;99.90;;;;;;4889474;29;20041;-92
2022/03/12 12:45:25;;;;;;;5.28;0.95;;;10.70;99.90;;;;;;4887195;29;20025;-92
2022/03/12 12:48:07;;;;;;;5.63;1.10;;;10.90;99.90;;;;;;4884246;29;20069;-91
2022/03/12 12:50:33;;;;;;;2.75;1.00;;;11.00;99.90;;;;;;4881594;29;20029;-92
2022/03/12 12:53:11;;;;;;;4.30;1.05;;;11.30;99.90;;;;;;4880407;29;20481;-92
2022/03/12 12:55:38;;;;;;;4.10;0.75;;;11.50;98.40;;;;;;4880344;29;20060;-92
2022/03/12 12:58:04;;;;;;;5.18;1.27;;;11.60;97.00;;;;;;4880156;29;20163;-94
2022/03/12 13:00:32;;;;;;;4.05;0.90;;;11.60;95.80;;;;;;4879785;29;20140;-92